Time;durP1;ratioP1;P1;durP2;ratioP2;P2;SDS_P1;SDS_P2;PMS_P1;PMS_P2;Temp;Humidity;BMP_temperature;BMP_pressure;BME280_temperature;BME280_humidity;BME280_pressure;Samples;Min_cycle;Max_cycle;Signal;HPM_P1;HPM_P2
2024/01/22 00:01:39;;;;;;;6.90;4.27;;;6.30;99.90;;;;;;5036950;28;21023;-46
2024/01/22 00:04:16;;;;;;;6.27;4.23;;;6.20;99.90;;;;;;5036514;28;20238;-50
2024/01/22 00:06:43;;;;;;;9.27;4.60;;;6.20;99.90;;;;;;5028166;28;20207;-50
2024/01/22 00:09:10;;;;;;;6.27;4.47;;;6.20;99.90;;;;;;5006810;28;20216;-49
2024/01/22 00:11:37;;;;;;;9.90;5.37;;;6.10;99.90;;;;;;5038996;28;20207;-49
2024/01/22 00:14:04;;;;;;;12.60;4.80;;;6.00;99.90;;;;;;5025257;28;20192;-45
2024/01/22 00:16:32;;;;;;;8.97;4.77;;;5.90;99.90;;;;;;5010718;28;20192;-44
2024/01/22 00:18:59;;;;;;;9.00;4.90;;;5.90;99.90;;;;;;5035039;28;20921;-49
2024/01/22 00:21:27;;;;;;;6.83;4.97;;;5.90;99.90;;;;;;5037174;28;20200;-47
2024/01/22 00:23:56;;;;;;;7.00;4.33;;;5.90;99.90;;;;;;4998473;28;20224;-49
2024/01/22 00:26:23;;;;;;;12.33;5.00;;;5.90;99.90;;;;;;5035870;28;20212;-49
2024/01/22 00:28:49;;;;;;;9.23;4.77;;;5.90;99.90;;;;;;5039726;28;20199;-50
2024/01/22 00:31:15;;;;;;;9.17;4.77;;;5.90;99.90;;;;;;5039420;28;20187;-44
2024/01/22 00:33:43;;;;;;;9.33;4.63;;;5.90;99.90;;;;;;5037054;28;20199;-48
2024/01/22 00:36:13;;;;;;;8.13;4.40;;;5.90;99.90;;;;;;5034650;28;20192;-48
2024/01/22 00:38:41;;;;;;;8.70;4.20;;;5.90;99.90;;;;;;5022269;28;20257;-48
2024/01/22 00:41:08;;;;;;;9.90;4.40;;;5.90;99.90;;;;;;5030598;28;20220;-46
2024/01/22 00:43:36;;;;;;;5.77;3.60;;;5.90;99.90;;;;;;5037995;28;20253;-49
2024/01/22 00:46:03;;;;;;;7.40;4.03;;;5.90;99.90;;;;;;5037480;28;20218;-46
2024/01/22 00:48:29;;;;;;;6.93;4.53;;;5.90;99.90;;;;;;5043383;28;20812;-44
2024/01/22 00:50:56;;;;;;;7.37;4.20;;;5.90;99.90;;;;;;5035409;28;20289;-48
2024/01/22 00:53:23;;;;;;;5.50;4.13;;;6.00;99.90;;;;;;5027715;28;20257;-45
2024/01/22 00:55:51;;;;;;;7.40;4.40;;;5.90;99.90;;;;;;5020605;28;20265;-48
2024/01/22 00:58:18;;;;;;;6.23;4.20;;;5.90;99.90;;;;;;5041907;28;20203;-50
2024/01/22 01:00:45;;;;;;;7.07;4.77;;;5.90;99.90;;;;;;5032448;28;20216;-50
2024/01/22 01:03:12;;;;;;;7.30;4.10;;;5.90;99.90;;;;;;5041066;28;20198;-45
2024/01/22 01:05:39;;;;;;;5.40;4.40;;;5.90;99.90;;;;;;5041476;28;20384;-47
2024/01/22 01:08:06;;;;;;;7.97;4.30;;;5.90;99.90;;;;;;5045960;28;20183;-47
2024/01/22 01:10:33;;;;;;;7.57;4.40;;;5.90;99.90;;;;;;5030710;28;20223;-48
2024/01/22 01:13:01;;;;;;;9.13;4.47;;;5.90;99.90;;;;;;5016426;28;20196;-45
2024/01/22 01:15:28;;;;;;;7.03;3.97;;;5.90;99.90;;;;;;5028133;28;20691;-46
2024/01/22 01:17:55;;;;;;;7.07;4.63;;;5.90;99.90;;;;;;5035341;28;20839;-50
2024/01/22 01:20:22;;;;;;;6.63;4.43;;;5.90;99.90;;;;;;5029396;28;20282;-48
2024/01/22 01:22:49;;;;;;;6.77;4.33;;;5.90;99.90;;;;;;5033900;28;20194;-49
2024/01/22 01:25:16;;;;;;;8.50;4.20;;;5.90;99.90;;;;;;5036551;28;20249;-49
2024/01/22 01:27:42;;;;;;;7.70;3.60;;;5.90;99.90;;;;;;5007149;28;20284;-49
2024/01/22 01:30:12;;;;;;;6.43;4.80;;;6.00;99.90;;;;;;5042765;28;20206;-45
2024/01/22 01:32:38;;;;;;;5.67;4.43;;;6.00;99.90;;;;;;5034773;28;20739;-51
2024/01/22 01:35:06;;;;;;;5.07;3.87;;;6.00;99.90;;;;;;5044928;28;20191;-48
2024/01/22 01:37:33;;;;;;;6.17;3.90;;;6.10;99.90;;;;;;5036178;28;20215;-50
2024/01/22 01:40:00;;;;;;;9.73;4.10;;;6.10;99.90;;;;;;5034430;28;20210;-44
2024/01/22 01:42:27;;;;;;;5.20;3.70;;;6.10;99.90;;;;;;5041642;28;20198;-44
2024/01/22 01:44:54;;;;;;;7.67;4.50;;;6.20;99.90;;;;;;5011102;28;20204;-46
2024/01/22 01:47:22;;;;;;;8.00;3.97;;;6.20;99.90;;;;;;5034147;28;20237;-45
2024/01/22 01:49:49;;;;;;;5.93;3.90;;;6.20;99.90;;;;;;5033542;28;20223;-51
2024/01/22 01:52:18;;;;;;;7.50;4.57;;;6.20;99.90;;;;;;5034791;28;20200;-44
2024/01/22 01:54:46;;;;;;;6.03;3.77;;;6.30;99.90;;;;;;5034917;28;20196;-51
2024/01/22 01:57:13;;;;;;;8.33;4.20;;;6.30;99.90;;;;;;5040433;28;20208;-45
2024/01/22 01:59:42;;;;;;;5.53;3.20;;;6.30;99.90;;;;;;5014679;28;20231;-48
2024/01/22 02:02:09;;;;;;;5.50;3.93;;;6.30;99.90;;;;;;5038784;28;20179;-46
2024/01/22 02:04:37;;;;;;;3.83;3.37;;;6.30;99.90;;;;;;5042271;28;20675;-50
2024/01/22 02:07:05;;;;;;;5.83;3.70;;;6.40;99.90;;;;;;5036502;28;20297;-49
2024/01/22 02:09:48;;;;;;;5.87;3.77;;;6.30;99.90;;;;;;5041355;28;20754;-45
2024/01/22 02:12:16;;;;;;;3.90;3.50;;;6.40;99.90;;;;;;5027138;28;20207;-48
2024/01/22 02:14:43;;;;;;;4.17;3.40;;;6.40;99.90;;;;;;5005986;28;20227;-49
2024/01/22 02:17:09;;;;;;;5.40;3.30;;;6.50;99.90;;;;;;5037468;28;20184;-48
2024/01/22 02:19:38;;;;;;;5.40;3.23;;;6.50;99.90;;;;;;5025392;28;20216;-47
2024/01/22 02:22:05;;;;;;;5.13;3.20;;;6.50;99.90;;;;;;5031721;28;20184;-48
2024/01/22 02:24:33;;;;;;;3.60;3.07;;;6.50;99.90;;;;;;5038890;28;20552;-49
2024/01/22 02:27:00;;;;;;;6.67;3.90;;;6.50;99.90;;;;;;5025465;28;20216;-50
2024/01/22 02:29:27;;;;;;;8.63;3.53;;;6.40;99.90;;;;;;5012949;28;20227;-47
2024/01/22 02:31:55;;;;;;;4.40;3.30;;;6.40;99.90;;;;;;5038203;28;20192;-44
2024/01/22 02:34:22;;;;;;;5.40;3.07;;;6.50;99.90;;;;;;5041247;28;20249;-46
2024/01/22 02:36:49;;;;;;;5.10;3.47;;;6.50;99.90;;;;;;5028908;28;20200;-51
2024/01/22 02:39:16;;;;;;;5.90;3.17;;;6.50;99.90;;;;;;5033737;28;20273;-46
2024/01/22 02:41:44;;;;;;;4.10;2.90;;;6.50;99.90;;;;;;5036711;28;20199;-51
2024/01/22 02:44:11;;;;;;;5.30;3.03;;;6.50;99.90;;;;;;5035237;28;20282;-51
2024/01/22 02:46:38;;;;;;;5.00;3.33;;;6.60;99.90;;;;;;5013889;28;20242;-51
2024/01/22 02:49:05;;;;;;;3.47;2.57;;;6.60;99.90;;;;;;5034449;28;20247;-44
2024/01/22 02:51:31;;;;;;;5.20;2.97;;;6.60;99.90;;;;;;5040567;28;20207;-43
2024/01/22 02:53:58;;;;;;;4.20;2.73;;;6.60;99.90;;;;;;5031239;28;20197;-49
2024/01/22 02:56:25;;;;;;;6.80;3.00;;;6.60;99.90;;;;;;5035615;28;20739;-49
2024/01/22 02:58:53;;;;;;;4.10;2.60;;;6.70;99.90;;;;;;5023015;28;20199;-45
2024/01/22 03:01:20;;;;;;;5.80;3.23;;;6.70;99.90;;;;;;5009836;28;20203;-46
2024/01/22 03:03:47;;;;;;;4.60;3.07;;;6.80;99.90;;;;;;5034480;28;20614;-51
2024/01/22 03:06:14;;;;;;;4.50;2.60;;;6.80;99.90;;;;;;5026726;28;20269;-47
2024/01/22 03:08:40;;;;;;;4.80;3.00;;;6.80;99.90;;;;;;5034675;28;20223;-46
2024/01/22 03:11:08;;;;;;;3.27;2.60;;;6.80;99.90;;;;;;5031678;28;20737;-50
2024/01/22 03:13:35;;;;;;;4.10;3.07;;;6.70;99.90;;;;;;5034557;28;20307;-48
2024/01/22 03:16:03;;;;;;;4.30;2.90;;;6.70;99.90;;;;;;5028168;28;20203;-50
2024/01/22 03:18:30;;;;;;;4.27;2.83;;;6.80;99.90;;;;;;5031560;28;20207;-48
2024/01/22 03:20:57;;;;;;;3.17;2.40;;;6.80;99.90;;;;;;5034340;28;20276;-50
2024/01/22 03:23:24;;;;;;;3.93;2.30;;;6.80;99.90;;;;;;5033536;28;20195;-47
2024/01/22 03:25:51;;;;;;;4.07;2.80;;;6.90;99.90;;;;;;5037810;28;20246;-49
2024/01/22 03:28:17;;;;;;;4.93;2.87;;;6.90;99.90;;;;;;5023147;28;20220;-51
2024/01/22 03:30:44;;;;;;;2.60;2.40;;;6.80;99.90;;;;;;5032625;28;20305;-46
2024/01/22 03:33:12;;;;;;;4.80;2.30;;;6.90;99.90;;;;;;5016342;28;20211;-51
2024/01/22 03:35:39;;;;;;;4.40;2.20;;;6.90;99.90;;;;;;5031168;28;20891;-45
2024/01/22 03:38:06;;;;;;;5.13;2.00;;;6.90;99.90;;;;;;5030064;28;20265;-49
2024/01/22 03:40:33;;;;;;;5.50;2.60;;;6.90;99.90;;;;;;5030958;28;20809;-46
2024/01/22 03:43:00;;;;;;;5.10;2.40;;;6.90;99.90;;;;;;5034007;28;20196;-50
2024/01/22 03:45:26;;;;;;;3.93;2.90;;;6.90;99.90;;;;;;5031618;28;20905;-47
2024/01/22 03:47:53;;;;;;;5.93;2.67;;;6.90;99.90;;;;;;5015910;28;20208;-49
2024/01/22 03:50:22;;;;;;;4.27;2.60;;;7.00;99.90;;;;;;5027687;28;20212;-50
2024/01/22 03:52:48;;;;;;;3.80;2.20;;;7.00;99.90;;;;;;5033831;28;20187;-47
2024/01/22 03:55:15;;;;;;;3.27;2.40;;;7.00;99.90;;;;;;5033417;28;20196;-50
2024/01/22 03:57:42;;;;;;;5.17;2.57;;;7.10;99.90;;;;;;5037685;28;20191;-46
2024/01/22 04:00:09;;;;;;;5.63;2.60;;;7.10;99.90;;;;;;5033721;28;20211;-49
2024/01/22 04:02:36;;;;;;;6.17;2.50;;;7.10;99.90;;;;;;5010235;28;20208;-49
2024/01/22 04:05:04;;;;;;;7.03;2.37;;;7.10;99.90;;;;;;5039173;28;20289;-46
2024/01/22 04:07:32;;;;;;;4.83;2.37;;;7.00;99.90;;;;;;5034864;28;20211;-46
2024/01/22 04:09:58;;;;;;;3.47;2.27;;;7.00;99.90;;;;;;5040068;28;20215;-48
2024/01/22 04:12:25;;;;;;;3.80;2.30;;;7.00;99.90;;;;;;5034841;28;20285;-49
2024/01/22 04:14:52;;;;;;;3.30;1.70;;;7.00;99.90;;;;;;5045469;28;20226;-46
2024/01/22 04:17:20;;;;;;;5.17;1.80;;;7.00;99.90;;;;;;5001359;28;21216;-48
2024/01/22 04:19:47;;;;;;;2.83;1.73;;;7.00;99.90;;;;;;5045449;28;20596;-45
2024/01/22 04:22:13;;;;;;;2.73;1.80;;;7.00;99.90;;;;;;5029430;28;20192;-45
2024/01/22 04:24:42;;;;;;;3.80;2.00;;;7.00;99.90;;;;;;5045454;28;20207;-44
2024/01/22 04:27:08;;;;;;;2.10;1.40;;;6.90;99.90;;;;;;5035686;28;20212;-52
2024/01/22 04:29:35;;;;;;;3.37;2.00;;;6.90;99.90;;;;;;5034028;28;20567;-46
2024/01/22 04:32:02;;;;;;;4.33;2.10;;;6.90;99.90;;;;;;5035632;28;20199;-49
2024/01/22 04:34:29;;;;;;;2.27;1.90;;;6.90;99.90;;;;;;5012756;28;20290;-46
2024/01/22 04:36:56;;;;;;;4.10;2.03;;;6.90;99.90;;;;;;5036377;28;20271;-49
2024/01/22 04:39:24;;;;;;;2.70;1.80;;;7.00;99.90;;;;;;5031731;28;20219;-45
2024/01/22 04:41:53;;;;;;;2.23;1.90;;;7.00;99.90;;;;;;5033291;28;20574;-51
2024/01/22 04:44:20;;;;;;;2.47;1.70;;;7.00;99.90;;;;;;5031286;28;20218;-49
2024/01/22 04:46:47;;;;;;;3.83;2.00;;;7.00;99.90;;;;;;5039644;28;20226;-47
2024/01/22 04:49:14;;;;;;;2.10;1.73;;;7.00;99.90;;;;;;5008617;28;20238;-48
2024/01/22 04:51:43;;;;;;;2.40;2.20;;;7.00;99.90;;;;;;5042239;28;20198;-47
2024/01/22 04:54:11;;;;;;;3.23;1.53;;;6.90;99.90;;;;;;5036228;28;20185;-45
2024/01/22 04:56:40;;;;;;;3.20;2.10;;;7.00;99.90;;;;;;5039469;28;20200;-47
2024/01/22 04:59:09;;;;;;;2.50;1.77;;;7.00;99.90;;;;;;5030572;28;20560;-51
2024/01/22 05:01:35;;;;;;;1.60;1.30;;;7.00;99.90;;;;;;5037469;28;20203;-46
2024/01/22 05:04:02;;;;;;;2.57;1.90;;;7.00;99.90;;;;;;5011728;28;20211;-52
2024/01/22 05:06:29;;;;;;;3.03;2.10;;;7.00;99.90;;;;;;5023707;28;20223;-50
2024/01/22 05:08:56;;;;;;;5.20;2.20;;;7.00;99.90;;;;;;5036058;28;20207;-47
2024/01/22 05:11:23;;;;;;;4.00;2.00;;;7.00;99.90;;;;;;5028245;28;20212;-52
2024/01/22 05:13:51;;;;;;;2.67;2.03;;;7.00;99.90;;;;;;5042104;28;20230;-45
2024/01/22 05:16:20;;;;;;;3.53;1.87;;;7.00;99.90;;;;;;5036205;28;20279;-51
2024/01/22 05:18:48;;;;;;;4.83;2.67;;;7.00;99.90;;;;;;5033675;28;20779;-45
2024/01/22 05:21:15;;;;;;;2.87;1.93;;;7.10;99.90;;;;;;5012758;28;20219;-51
2024/01/22 05:23:42;;;;;;;2.93;1.93;;;7.10;99.90;;;;;;5037774;28;20277;-45
2024/01/22 05:26:09;;;;;;;2.37;1.40;;;7.20;99.90;;;;;;5033347;28;20215;-50
2024/01/22 05:28:36;;;;;;;3.93;2.00;;;7.10;99.90;;;;;;5040310;28;20996;-46
2024/01/22 05:31:04;;;;;;;2.93;1.63;;;7.20;99.90;;;;;;5031745;28;20330;-50
2024/01/22 05:33:32;;;;;;;4.20;1.73;;;7.20;99.90;;;;;;5033468;28;20209;-46
2024/01/22 05:35:59;;;;;;;3.03;1.47;;;7.30;99.90;;;;;;5013795;28;20660;-47
2024/01/22 05:38:26;;;;;;;2.93;1.33;;;7.40;99.90;;;;;;5040533;28;20204;-46
2024/01/22 05:40:53;;;;;;;1.77;1.30;;;7.50;99.90;;;;;;5033649;28;20224;-52
2024/01/22 05:43:20;;;;;;;3.20;1.47;;;7.60;99.90;;;;;;5027428;28;20272;-47
2024/01/22 05:45:47;;;;;;;1.43;1.33;;;7.70;99.90;;;;;;5033446;28;20742;-51
2024/01/22 05:48:14;;;;;;;1.30;1.03;;;7.80;99.90;;;;;;5022348;28;20230;-48
2024/01/22 05:50:42;;;;;;;6.20;1.57;;;7.80;99.90;;;;;;5006586;28;20289;-47
2024/01/22 05:53:09;;;;;;;0.90;0.80;;;7.90;99.90;;;;;;5026599;28;20211;-47
2024/01/22 05:55:36;;;;;;;2.37;2.10;;;7.90;99.90;;;;;;5033820;28;20229;-45
2024/01/22 05:58:03;;;;;;;1.70;1.27;;;7.90;99.90;;;;;;5030372;28;20225;-47
2024/01/22 06:00:30;;;;;;;2.13;1.07;;;8.00;99.90;;;;;;5031442;28;20281;-47
2024/01/22 06:02:59;;;;;;;1.53;1.40;;;8.00;99.90;;;;;;5034745;28;20199;-50
2024/01/22 06:05:26;;;;;;;2.50;1.20;;;8.10;99.90;;;;;;5001541;28;20340;-45
2024/01/22 06:07:54;;;;;;;1.83;1.30;;;8.10;99.90;;;;;;5041557;28;20329;-51
2024/01/22 06:10:21;;;;;;;0.83;0.80;;;8.20;99.90;;;;;;5037750;28;20200;-48
2024/01/22 06:12:48;;;;;;;1.33;1.23;;;8.30;99.90;;;;;;5033526;28;20219;-47
2024/01/22 06:15:15;;;;;;;3.13;1.00;;;8.30;99.90;;;;;;5027658;28;20196;-46
2024/01/22 06:17:42;;;;;;;2.10;1.10;;;8.40;99.90;;;;;;5037817;28;20202;-46
2024/01/22 06:20:10;;;;;;;2.27;0.80;;;8.50;99.90;;;;;;5022423;28;20278;-49
2024/01/22 06:22:36;;;;;;;0.83;0.70;;;8.50;99.90;;;;;;5009270;28;20211;-48
2024/01/22 06:25:06;;;;;;;1.13;1.03;;;8.50;99.90;;;;;;5029314;28;20201;-48
2024/01/22 06:27:34;;;;;;;1.03;0.83;;;8.50;99.90;;;;;;5032836;28;20687;-46
2024/01/22 06:30:01;;;;;;;1.63;0.70;;;8.60;99.90;;;;;;5027689;28;20638;-52
2024/01/22 06:32:28;;;;;;;1.77;1.20;;;8.60;99.90;;;;;;5035664;28;20196;-44
2024/01/22 06:34:55;;;;;;;2.90;1.07;;;8.70;99.90;;;;;;5036268;28;20202;-49
2024/01/22 06:37:24;;;;;;;0.80;0.80;;;8.80;99.90;;;;;;4991653;28;20282;-47
2024/01/22 06:39:50;;;;;;;1.53;0.97;;;8.90;99.90;;;;;;5035521;28;20223;-47
2024/01/22 06:42:18;;;;;;;1.17;0.90;;;8.90;99.90;;;;;;5034147;28;20257;-50
2024/01/22 06:44:45;;;;;;;0.80;0.80;;;9.00;99.90;;;;;;5026003;28;20286;-47
2024/01/22 06:47:12;;;;;;;2.03;0.80;;;9.00;99.90;;;;;;5041040;28;20565;-50
2024/01/22 06:49:39;;;;;;;1.60;1.03;;;9.10;99.90;;;;;;5022741;28;20214;-52
2024/01/22 06:52:06;;;;;;;0.80;0.80;;;9.00;99.90;;;;;;5033258;28;20272;-51
2024/01/22 06:54:34;;;;;;;1.10;1.00;;;9.00;99.90;;;;;;4994218;28;20268;-49
2024/01/22 06:57:01;;;;;;;0.70;0.70;;;9.10;99.90;;;;;;5037456;28;20188;-54
2024/01/22 06:59:30;;;;;;;0.60;0.60;;;9.10;99.90;;;;;;5031652;28;20699;-49
2024/01/22 07:01:58;;;;;;;0.97;0.70;;;9.10;99.90;;;;;;5032203;28;20196;-52
2024/01/22 07:04:25;;;;;;;0.77;0.50;;;9.20;99.90;;;;;;5038435;28;20203;-53
2024/01/22 07:06:53;;;;;;;0.73;0.70;;;9.20;99.90;;;;;;5031241;28;20221;-52
2024/01/22 07:09:20;;;;;;;1.00;0.90;;;9.20;99.90;;;;;;4997086;28;20231;-52
2024/01/22 07:11:47;;;;;;;0.60;0.60;;;9.30;99.90;;;;;;5034256;28;20215;-52
2024/01/22 07:14:17;;;;;;;0.73;0.70;;;9.40;99.90;;;;;;5009783;28;20972;-51
2024/01/22 07:16:46;;;;;;;1.07;0.70;;;9.50;99.90;;;;;;5032105;28;20282;-53
2024/01/22 07:19:14;;;;;;;1.80;0.80;;;9.60;99.90;;;;;;5030744;28;20935;-49
2024/01/22 07:21:42;;;;;;;1.23;0.70;;;9.60;99.90;;;;;;5036988;28;20199;-53
2024/01/22 07:24:14;;;;;;;0.83;0.60;;;9.50;99.90;;;;;;5003066;28;20212;-50
2024/01/22 07:26:42;;;;;;;1.10;0.60;;;9.60;99.90;;;;;;5034660;28;20215;-50
2024/01/22 07:29:10;;;;;;;0.80;0.80;;;9.70;99.90;;;;;;5022326;28;20242;-52
2024/01/22 07:31:36;;;;;;;1.13;0.60;;;9.70;99.90;;;;;;5025868;28;20211;-54
2024/01/22 07:34:06;;;;;;;0.70;0.70;;;9.70;99.90;;;;;;5038404;28;20191;-53
2024/01/22 07:36:34;;;;;;;0.67;0.67;;;9.70;99.90;;;;;;5036630;28;20201;-50
2024/01/22 07:39:01;;;;;;;2.57;0.90;;;9.80;99.90;;;;;;5001431;28;20593;-51
2024/01/22 07:41:31;;;;;;;0.57;0.57;;;9.80;99.90;;;;;;5011031;28;20195;-52
2024/01/22 07:43:59;;;;;;;2.17;1.10;;;9.80;99.90;;;;;;5034957;28;20199;-51
2024/01/22 07:46:28;;;;;;;0.60;0.60;;;9.70;99.90;;;;;;5012062;28;20950;-49
2024/01/22 07:48:56;;;;;;;1.37;0.70;;;9.80;99.90;;;;;;5032984;28;20668;-52
2024/01/22 07:51:26;;;;;;;1.13;0.77;;;9.80;99.90;;;;;;5032586;28;20275;-49
2024/01/22 07:53:53;;;;;;;0.60;0.60;;;9.90;99.90;;;;;;5030585;28;20210;-53
2024/01/22 07:56:22;;;;;;;0.80;0.80;;;10.00;99.90;;;;;;4999605;28;20257;-52
2024/01/22 07:58:53;;;;;;;0.67;0.67;;;10.00;99.90;;;;;;5040918;28;20201;-47
2024/01/22 08:01:23;;;;;;;0.60;0.53;;;10.00;99.90;;;;;;5029796;28;20573;-51
2024/01/22 08:03:51;;;;;;;1.60;0.73;;;10.00;99.90;;;;;;5029178;28;20207;-50
2024/01/22 08:06:20;;;;;;;1.13;1.03;;;9.90;99.90;;;;;;5039493;28;20273;-50
2024/01/22 08:08:49;;;;;;;0.80;0.80;;;9.90;99.90;;;;;;5035637;28;20310;-47
2024/01/22 08:11:18;;;;;;;0.60;0.60;;;9.80;99.90;;;;;;4989242;28;20219;-51
2024/01/22 08:13:45;;;;;;;1.87;1.00;;;9.80;99.90;;;;;;5027748;28;20227;-52
2024/01/22 08:16:15;;;;;;;0.70;0.70;;;9.80;99.90;;;;;;5035038;28;20211;-49
2024/01/22 08:18:42;;;;;;;1.00;0.80;;;9.80;99.90;;;;;;5012503;28;20221;-46
2024/01/22 08:21:09;;;;;;;1.50;0.90;;;9.80;99.90;;;;;;5033792;28;20183;-52
2024/01/22 08:23:36;;;;;;;1.53;1.00;;;9.80;99.90;;;;;;5034986;28;20245;-52
2024/01/22 08:26:06;;;;;;;0.80;0.80;;;9.80;99.90;;;;;;4996377;28;20199;-51
2024/01/22 08:28:34;;;;;;;1.47;1.27;;;9.80;99.90;;;;;;5026949;28;20869;-53
2024/01/22 08:31:02;;;;;;;1.17;0.90;;;9.70;99.90;;;;;;5032581;28;20253;-49
2024/01/22 08:33:30;;;;;;;1.20;0.87;;;9.70;99.90;;;;;;5028111;28;21415;-50
2024/01/22 08:35:57;;;;;;;1.00;0.90;;;9.70;99.90;;;;;;5032817;28;20579;-47
2024/01/22 08:38:24;;;;;;;0.93;0.90;;;9.70;99.90;;;;;;5036156;28;20298;-51
2024/01/22 08:40:52;;;;;;;1.47;1.00;;;9.60;99.90;;;;;;5035524;28;20237;-52
2024/01/22 08:43:22;;;;;;;1.23;1.13;;;9.60;99.90;;;;;;5002215;28;20191;-52
2024/01/22 08:45:50;;;;;;;1.10;1.10;;;9.60;99.90;;;;;;5041053;28;20690;-52
2024/01/22 08:48:17;;;;;;;1.07;1.00;;;9.60;99.90;;;;;;5022683;28;20306;-49
2024/01/22 08:50:45;;;;;;;1.40;1.30;;;9.60;99.90;;;;;;5010234;28;20219;-50
2024/01/22 08:53:13;;;;;;;1.07;1.00;;;9.60;99.90;;;;;;5035842;28;20200;-50
2024/01/22 08:55:41;;;;;;;0.93;0.93;;;9.50;99.90;;;;;;5031810;28;20702;-48
2024/01/22 08:58:09;;;;;;;2.13;1.60;;;9.60;99.90;;;;;;5003482;28;20207;-52
2024/01/22 09:00:38;;;;;;;1.40;1.30;;;9.60;99.90;;;;;;5037251;28;20285;-49
2024/01/22 09:03:05;;;;;;;2.37;1.50;;;9.60;99.90;;;;;;5021960;28;23211;-52
2024/01/22 09:05:33;;;;;;;1.57;1.40;;;9.60;99.90;;;;;;5028710;28;20203;-53
2024/01/22 09:08:01;;;;;;;2.10;1.80;;;9.70;99.90;;;;;;5036990;28;20218;-53
2024/01/22 09:10:29;;;;;;;3.10;1.83;;;9.70;99.90;;;;;;5035669;28;20260;-50
2024/01/22 09:12:58;;;;;;;1.37;1.30;;;9.80;99.90;;;;;;4987995;28;20606;-49
2024/01/22 09:15:27;;;;;;;3.13;1.53;;;9.80;99.90;;;;;;5021273;28;20675;-52
2024/01/22 09:17:55;;;;;;;2.93;1.50;;;9.80;99.90;;;;;;5028407;28;20574;-46
2024/01/22 09:20:24;;;;;;;1.80;1.70;;;9.80;99.90;;;;;;5037268;28;20226;-52
2024/01/22 09:22:51;;;;;;;3.23;1.60;;;9.80;99.90;;;;;;5037937;28;20192;-53
2024/01/22 09:25:20;;;;;;;2.17;1.97;;;9.90;99.90;;;;;;5033001;28;20220;-52
2024/01/22 09:27:48;;;;;;;2.30;2.10;;;9.90;99.90;;;;;;5037378;28;20223;-53
2024/01/22 09:30:15;;;;;;;1.90;1.70;;;9.90;99.90;;;;;;5010699;28;20207;-50
2024/01/22 09:32:43;;;;;;;1.93;1.50;;;9.90;99.90;;;;;;5039669;28;20225;-49
2024/01/22 09:35:13;;;;;;;5.40;2.00;;;10.00;99.90;;;;;;5019078;28;20199;-52
2024/01/22 09:37:43;;;;;;;2.00;1.60;;;10.00;99.90;;;;;;5027774;28;20206;-51
2024/01/22 09:40:13;;;;;;;2.70;1.60;;;10.00;99.90;;;;;;5036592;28;20617;-54
2024/01/22 09:42:41;;;;;;;1.80;1.70;;;10.00;99.90;;;;;;5024653;28;20211;-53
2024/01/22 09:45:10;;;;;;;3.60;1.87;;;10.00;99.90;;;;;;4992825;28;20294;-56
2024/01/22 09:47:38;;;;;;;4.23;2.00;;;10.00;99.90;;;;;;5038376;28;20220;-53
2024/01/22 09:50:07;;;;;;;2.10;1.80;;;10.00;99.90;;;;;;5034173;28;20219;-54
2024/01/22 09:52:44;;;;;;;3.33;1.90;;;10.00;99.90;;;;;;5038227;28;20214;-55
2024/01/22 09:55:12;;;;;;;3.13;2.00;;;9.90;99.90;;;;;;5029460;28;20941;-54
2024/01/22 09:57:40;;;;;;;4.43;2.37;;;9.90;99.90;;;;;;5014644;28;20684;-55
2024/01/22 10:00:12;;;;;;;4.20;1.70;;;9.90;99.90;;;;;;4999575;28;21977;-54
2024/01/22 10:02:40;;;;;;;3.33;1.90;;;9.90;99.90;;;;;;5036846;28;20256;-52
2024/01/22 10:05:09;;;;;;;5.33;2.60;;;9.80;99.90;;;;;;5028624;28;20938;-53
2024/01/22 10:07:37;;;;;;;3.57;2.07;;;9.80;99.90;;;;;;5039985;28;20562;-55
2024/01/22 10:10:06;;;;;;;5.50;2.70;;;9.80;99.90;;;;;;5027489;28;21250;-50
2024/01/22 10:12:58;;;;;;;7.90;2.87;;;9.80;99.90;;;;;;5041594;28;20228;-53
2024/01/22 10:15:26;;;;;;;5.00;2.43;;;9.70;99.90;;;;;;5033971;28;20281;-51
2024/01/22 10:17:54;;;;;;;5.67;2.70;;;9.70;99.90;;;;;;5008863;28;20207;-51
2024/01/22 10:20:24;;;;;;;3.40;2.73;;;9.60;99.90;;;;;;5035209;28;20260;-48
2024/01/22 10:23:02;;;;;;;5.13;3.10;;;9.60;99.90;;;;;;5024159;28;20289;-51
2024/01/22 10:25:30;;;;;;;4.90;2.80;;;9.60;99.90;;;;;;5034942;28;20773;-51
2024/01/22 10:28:16;;;;;;;8.70;1.70;;;9.60;99.90;;;;;;5027277;28;21316;-53
2024/01/22 10:30:45;;;;;;;2.87;1.40;;;9.50;99.90;;;;;;4991909;28;20237;-53
2024/01/22 10:33:15;;;;;;;2.73;1.40;;;9.40;99.90;;;;;;5037551;28;20196;-54
2024/01/22 10:35:43;;;;;;;1.47;1.07;;;9.30;99.90;;;;;;5036786;28;20539;-48
2024/01/22 10:38:14;;;;;;;1.50;1.40;;;9.40;99.90;;;;;;5020931;28;21004;-51
2024/01/22 10:40:41;;;;;;;3.23;1.87;;;9.50;99.90;;;;;;5031243;28;20231;-50
2024/01/22 10:43:24;;;;;;;2.33;1.47;;;9.50;99.90;;;;;;5033320;28;20188;-50
2024/01/22 10:45:52;;;;;;;2.73;1.60;;;9.40;99.90;;;;;;5025188;28;20217;-49
2024/01/22 10:48:21;;;;;;;3.07;1.27;;;9.40;99.90;;;;;;5012627;28;20243;-47
2024/01/22 10:50:50;;;;;;;4.53;1.47;;;9.40;99.90;;;;;;5021482;28;20215;-52
2024/01/22 10:53:20;;;;;;;3.47;1.50;;;9.40;99.90;;;;;;5033034;28;20223;-51
2024/01/22 10:55:59;;;;;;;5.03;1.33;;;9.30;99.90;;;;;;5025769;28;20211;-50
2024/01/22 10:58:28;;;;;;;6.77;1.23;;;9.30;99.90;;;;;;5039510;28;20190;-50
2024/01/22 11:01:01;;;;;;;3.13;1.37;;;9.30;99.90;;;;;;5025043;28;20231;-47
2024/01/22 11:03:29;;;;;;;7.40;1.30;;;9.30;99.90;;;;;;5006983;28;20210;-47
2024/01/22 11:05:59;;;;;;;7.27;1.27;;;9.30;99.90;;;;;;5024656;28;21018;-50
2024/01/22 11:08:30;;;;;;;7.30;1.60;;;9.30;99.90;;;;;;5021106;28;20223;-51
2024/01/22 11:10:59;;;;;;;7.37;1.27;;;9.30;99.90;;;;;;5029506;28;20220;-50
2024/01/22 11:13:28;;;;;;;6.67;1.43;;;9.30;99.90;;;;;;5017333;28;20625;-54
2024/01/22 11:15:56;;;;;;;5.27;1.90;;;9.30;99.90;;;;;;5021320;28;20911;-51
2024/01/22 11:18:24;;;;;;;5.40;1.53;;;9.30;99.90;;;;;;5010246;28;20229;-51
2024/01/22 11:21:19;;;;;;;2.67;1.00;;;9.30;99.90;;;;;;5035027;28;20226;-51
2024/01/22 11:24:06;;;;;;;5.43;1.20;;;9.30;99.90;;;;;;5025785;28;20199;-51
2024/01/22 11:26:33;;;;;;;4.87;1.53;;;9.20;99.90;;;;;;5009088;28;20224;-54
2024/01/22 11:29:07;;;;;;;6.70;1.63;;;9.20;99.90;;;;;;5031279;28;20992;-53
2024/01/22 11:31:35;;;;;;;5.20;1.20;;;9.30;99.90;;;;;;5028144;28;20319;-52
2024/01/22 11:34:03;;;;;;;7.00;1.63;;;9.30;99.90;;;;;;5006910;28;20199;-53
2024/01/22 11:36:53;;;;;;;3.83;1.40;;;9.40;99.90;;;;;;5040595;28;20191;-54
2024/01/22 11:39:43;;;;;;;7.53;1.83;;;9.40;99.90;;;;;;5038216;28;20211;-52
2024/01/22 11:42:34;;;;;;;9.50;1.63;;;9.40;99.90;;;;;;5025587;28;21046;-54
2024/01/22 11:45:13;;;;;;;15.23;2.27;;;9.50;99.90;;;;;;5011237;28;20270;-52
2024/01/22 11:47:41;;;;;;;8.83;2.33;;;9.50;99.90;;;;;;5001256;28;20249;-54
2024/01/22 11:50:10;;;;;;;6.97;1.93;;;9.50;99.90;;;;;;5021424;28;20223;-53
2024/01/22 11:52:38;;;;;;;9.43;2.47;;;9.50;99.90;;;;;;5029775;28;20707;-48
2024/01/22 11:55:08;;;;;;;11.00;1.97;;;9.50;99.90;;;;;;5027209;28;22908;-51
2024/01/22 11:57:37;;;;;;;11.83;1.93;;;9.50;99.90;;;;;;5035227;28;20200;-49
2024/01/22 12:00:09;;;;;;;4.60;1.80;;;9.50;99.90;;;;;;5022232;28;20218;-50
2024/01/22 12:02:41;;;;;;;14.10;2.23;;;9.40;99.90;;;;;;5033987;28;20203;-50
2024/01/22 12:05:12;;;;;;;8.73;2.20;;;9.40;99.90;;;;;;5009367;28;20199;-55
2024/01/22 12:07:40;;;;;;;6.73;2.23;;;9.40;99.90;;;;;;5034662;28;20207;-52
2024/01/22 12:10:21;;;;;;;6.67;2.17;;;9.40;99.90;;;;;;5024776;28;20223;-55
2024/01/22 12:12:52;;;;;;;14.07;2.73;;;9.40;99.90;;;;;;5037498;28;20214;-51
2024/01/22 12:15:21;;;;;;;11.43;2.40;;;9.40;99.90;;;;;;5043558;28;20662;-51
2024/01/22 12:17:49;;;;;;;10.60;2.53;;;9.40;99.90;;;;;;5010013;28;20683;-51
2024/01/22 12:20:18;;;;;;;9.67;2.20;;;9.40;99.90;;;;;;4997164;28;20769;-51
2024/01/22 12:22:57;;;;;;;9.47;2.33;;;9.40;99.90;;;;;;5042088;28;20254;-49
2024/01/22 12:25:34;;;;;;;9.53;2.33;;;9.40;99.90;;;;;;5034812;28;20210;-54
2024/01/22 12:28:07;;;;;;;10.93;2.20;;;9.50;99.90;;;;;;5028541;28;20724;-55
2024/01/22 12:30:35;;;;;;;10.40;2.80;;;9.50;99.90;;;;;;5034105;28;20234;-53
2024/01/22 12:33:02;;;;;;;11.80;2.50;;;9.40;99.90;;;;;;5028713;28;21695;-53
2024/01/22 12:35:29;;;;;;;9.43;2.27;;;9.40;99.90;;;;;;5017902;28;20269;-53
2024/01/22 12:37:56;;;;;;;11.83;2.40;;;9.40;99.90;;;;;;5030889;28;20195;-49
2024/01/22 12:40:24;;;;;;;12.97;2.50;;;9.40;99.90;;;;;;5031228;28;20216;-52
2024/01/22 12:43:00;;;;;;;11.47;3.10;;;9.50;99.90;;;;;;5029142;28;20793;-52
2024/01/22 12:45:28;;;;;;;12.60;2.07;;;9.50;99.90;;;;;;5025179;28;20204;-53
2024/01/22 12:47:55;;;;;;;12.73;2.57;;;9.50;99.90;;;;;;5030660;28;20208;-53
2024/01/22 12:50:22;;;;;;;12.20;3.00;;;9.50;99.90;;;;;;4998814;28;21891;-52
2024/01/22 12:52:50;;;;;;;10.07;2.30;;;9.50;99.90;;;;;;5043221;28;20290;-53
2024/01/22 12:55:17;;;;;;;14.03;3.83;;;9.50;99.90;;;;;;5031680;28;20195;-54
2024/01/22 12:57:45;;;;;;;16.47;3.43;;;9.50;99.90;;;;;;5035212;28;20723;-50
2024/01/22 13:00:15;;;;;;;20.07;3.73;;;9.50;99.90;;;;;;5038953;28;20207;-53
2024/01/22 13:02:44;;;;;;;13.10;4.17;;;9.60;99.90;;;;;;5037992;28;20199;-51